Time;durP1;ratioP1;P1;durP2;ratioP2;P2;SDS_P1;SDS_P2;PMS_P1;PMS_P2;Temp;Humidity;BMP_temperature;BMP_pressure;BME280_temperature;BME280_humidity;BME280_pressure;Samples;Min_cycle;Max_cycle;Signal;HPM_P1;HPM_P2
2022/03/31 00:00:30;;;;;;;15.85;12.32;;;;;;;10.64;74.14;98196.03;4916140;29;20038;-94
2022/03/31 00:02:56;;;;;;;16.52;13.10;;;;;;;10.62;74.00;98190.88;4915470;29;20154;-93
2022/03/31 00:05:21;;;;;;;17.98;12.63;;;;;;;10.57;74.36;98195.94;4926048;29;20039;-93
2022/03/31 00:07:58;;;;;;;17.70;12.73;;;;;;;10.62;74.52;98188.19;4925974;29;20020;-93
2022/03/31 00:10:29;;;;;;;18.50;13.63;;;;;;;10.54;74.49;98187.44;4909838;29;20039;-94
2022/03/31 00:12:56;;;;;;;19.65;13.40;;;;;;;10.48;74.36;98183.66;4909514;29;20067;-94
2022/03/31 00:15:22;;;;;;;19.95;13.13;;;;;;;10.47;74.50;98183.84;4908926;29;20038;-94
2022/03/31 00:17:48;;;;;;;22.67;13.30;;;;;;;10.49;75.17;98185.31;4911195;29;20118;-93
2022/03/31 00:20:14;;;;;;;16.60;12.52;;;;;;;10.51;75.21;98185.97;4909065;29;20051;-94
2022/03/31 00:22:40;;;;;;;18.00;12.73;;;;;;;10.48;75.38;98170.31;4912924;29;20441;-93
2022/03/31 00:25:06;;;;;;;19.17;12.80;;;;;;;10.39;75.51;98174.88;4915527;29;20041;-94
2022/03/31 00:27:32;;;;;;;18.38;13.73;;;;;;;10.35;76.01;98170.91;4915622;29;20050;-94
2022/03/31 00:29:57;;;;;;;15.88;12.50;;;;;;;10.43;76.03;98169.19;4920728;29;20031;-94
2022/03/31 00:32:22;;;;;;;17.75;13.38;;;;;;;10.49;75.82;98171.13;4916793;29;20030;-94
2022/03/31 00:34:48;;;;;;;19.85;13.38;;;;;;;10.48;75.75;98162.28;4910563;29;20043;-94
2022/03/31 00:37:13;;;;;;;20.02;14.13;;;;;;;10.53;75.60;98167.09;4911888;29;20039;-95
2022/03/31 00:39:39;;;;;;;19.48;14.30;;;;;;;10.55;75.95;98168.56;4914830;29;20401;-94
2022/03/31 00:42:05;;;;;;;17.23;13.32;;;;;;;10.51;75.85;98161.91;4910201;29;20455;-94
2022/03/31 00:44:30;;;;;;;17.85;13.30;;;;;;;10.53;75.68;98159.91;4913441;29;20028;-94
2022/03/31 00:46:56;;;;;;;20.77;14.05;;;;;;;10.54;75.48;98160.72;4906628;29;20038;-92
2022/03/31 00:49:23;;;;;;;20.75;15.13;;;;;;;10.53;76.00;98162.56;4922278;29;20024;-92
2022/03/31 00:51:50;;;;;;;19.75;13.65;;;;;;;10.38;75.60;98164.34;4906334;29;20031;-93
2022/03/31 00:54:18;;;;;;;16.88;13.07;;;;;;;10.30;76.25;98154.56;4906871;29;20024;-93
2022/03/31 00:56:43;;;;;;;16.63;13.30;;;;;;;10.36;76.51;98151.19;4906515;29;20023;-92
2022/03/31 00:59:09;;;;;;;17.75;14.20;;;;;;;10.40;77.16;98157.00;4906423;29;20500;-93
2022/03/31 01:01:39;;;;;;;18.67;14.05;;;;;;;10.36;76.69;98153.84;4909870;29;20034;-95
2022/03/31 01:04:06;;;;;;;20.08;14.60;;;;;;;10.29;76.68;98147.56;4927433;29;20023;-93
2022/03/31 01:06:34;;;;;;;19.73;14.52;;;;;;;10.28;76.81;98143.25;4912685;29;20027;-94
2022/03/31 01:08:59;;;;;;;19.80;14.73;;;;;;;10.28;76.54;98145.09;4921587;29;20031;-92
2022/03/31 01:11:25;;;;;;;18.65;13.95;;;;;;;10.30;76.55;98135.03;4906319;29;20031;-92
2022/03/31 01:13:51;;;;;;;19.88;14.70;;;;;;;10.23;77.08;98132.28;4906105;29;20059;-92
2022/03/31 01:16:17;;;;;;;18.17;13.65;;;;;;;10.32;77.17;98128.50;4921547;29;20023;-92
2022/03/31 01:18:42;;;;;;;19.33;13.90;;;;;;;10.31;77.16;98126.03;4905943;29;20095;-92
2022/03/31 01:21:09;;;;;;;20.02;14.27;;;;;;;10.38;76.77;98122.44;4905727;29;20504;-92
2022/03/31 01:23:35;;;;;;;16.33;13.02;;;;;;;10.36;76.78;98120.97;4905925;29;20413;-92
2022/03/31 01:26:09;;;;;;;20.67;14.05;;;;;;;10.36;76.57;98126.31;4905401;29;20035;-92
2022/03/31 01:28:36;;;;;;;18.52;13.10;;;;;;;10.42;76.81;98124.78;4906003;29;20106;-92
2022/03/31 01:31:02;;;;;;;18.92;13.82;;;;;;;10.35;77.07;98122.81;4905572;29;20035;-93
2022/03/31 01:33:28;;;;;;;19.58;13.95;;;;;;;10.42;77.33;98128.28;4904519;29;20036;-92
2022/03/31 01:35:53;;;;;;;18.30;14.18;;;;;;;10.43;77.53;98129.94;4905551;29;20501;-92
2022/03/31 01:38:19;;;;;;;19.23;14.20;;;;;;;10.48;78.26;98127.53;4905486;29;20208;-93
2022/03/31 01:40:44;;;;;;;17.65;13.82;;;;;;;10.37;78.02;98120.78;4904939;29;20466;-93
2022/03/31 01:43:09;;;;;;;18.63;13.65;;;;;;;10.42;78.22;98119.44;4905945;29;20171;-93
2022/03/31 01:45:35;;;;;;;19.90;13.82;;;;;;;10.21;77.77;98110.25;4905817;29;20110;-92
2022/03/31 01:48:00;;;;;;;17.42;14.07;;;;;;;10.11;78.27;98112.31;4907201;29;20470;-93
2022/03/31 01:50:26;;;;;;;20.05;14.05;;;;;;;10.08;78.84;98102.00;4916115;29;20059;-93
2022/03/31 01:52:51;;;;;;;18.60;15.10;;;;;;;10.24;78.23;98101.88;4905748;29;20031;-92
2022/03/31 01:55:17;;;;;;;17.80;14.18;;;;;;;10.25;78.08;98097.38;4905066;29;20027;-92
2022/03/31 01:57:43;;;;;;;16.98;14.48;;;;;;;10.29;78.33;98094.16;4905483;29;20114;-93
2022/03/31 02:00:09;;;;;;;20.65;14.43;;;;;;;10.25;78.32;98100.88;4905342;29;20035;-93
2022/03/31 02:02:34;;;;;;;19.75;14.45;;;;;;;10.24;78.22;98098.38;4905299;29;20359;-92
2022/03/31 02:05:00;;;;;;;17.65;14.13;;;;;;;10.35;78.30;98092.59;4905561;29;20051;-92
2022/03/31 02:07:25;;;;;;;20.35;14.48;;;;;;;10.33;78.27;98094.59;4905630;29;20425;-93
2022/03/31 02:09:50;;;;;;;18.27;14.48;;;;;;;10.29;78.75;98093.31;4905038;29;20036;-93
2022/03/31 02:12:16;;;;;;;19.20;14.93;;;;;;;10.16;78.94;98090.41;4905182;29;20039;-92
2022/03/31 02:14:41;;;;;;;17.75;14.52;;;;;;;10.21;78.83;98090.72;4905153;29;20038;-93
2022/03/31 02:17:19;;;;;;;20.60;15.20;;;;;;;10.27;79.01;98087.31;4905249;29;20019;-93
2022/03/31 02:19:44;;;;;;;20.67;14.77;;;;;;;10.17;78.88;98084.06;4905350;29;20047;-92
2022/03/31 02:22:10;;;;;;;19.33;14.20;;;;;;;10.22;78.73;98093.22;4905662;29;20055;-93
2022/03/31 02:24:35;;;;;;;20.75;14.80;;;;;;;10.16;78.81;98091.25;4905227;29;20486;-92
2022/03/31 02:27:01;;;;;;;21.30;14.65;;;;;;;10.16;78.93;98087.75;4905583;29;20028;-93
2022/03/31 02:29:26;;;;;;;23.55;15.80;;;;;;;10.04;78.69;98079.34;4905840;29;20402;-93
2022/03/31 02:31:52;;;;;;;20.02;15.48;;;;;;;10.00;79.06;98083.38;4905712;29;20073;-92
2022/03/31 02:34:18;;;;;;;19.23;15.00;;;;;;;10.09;79.10;98076.97;4905764;29;20038;-94
2022/03/31 02:37:00;;;;;;;19.98;14.95;;;;;;;10.04;78.97;98077.50;4905748;29;20035;-92
2022/03/31 02:39:28;;;;;;;18.35;15.02;;;;;;;10.13;78.37;98078.25;4905328;29;20139;-92
2022/03/31 02:41:54;;;;;;;19.25;14.55;;;;;;;10.11;77.85;98066.91;4906089;29;20027;-94
2022/03/31 02:44:20;;;;;;;24.83;15.50;;;;;;;10.10;78.06;98073.28;4905201;29;20035;-93
2022/03/31 02:46:46;;;;;;;20.73;15.55;;;;;;;9.99;77.88;98071.03;4906584;29;20031;-94
2022/03/31 02:49:11;;;;;;;20.65;15.25;;;;;;;10.04;78.25;98074.84;4906705;29;20024;-93
2022/03/31 02:51:36;;;;;;;20.25;14.48;;;;;;;9.98;78.21;98064.88;4902840;29;20079;-93
2022/03/31 02:56:46;;;;;;;17.98;14.82;;;;;;;9.89;78.66;98065.09;4916944;29;20453;-93
2022/03/31 02:59:11;;;;;;;18.77;14.45;;;;;;;9.96;79.46;98069.56;4899792;29;20111;-93
2022/03/31 03:01:37;;;;;;;22.67;15.38;;;;;;;10.01;79.06;98069.03;4903751;29;20503;-94
2022/03/31 03:04:02;;;;;;;20.20;14.35;;;;;;;9.98;78.96;98064.88;4903436;29;20023;-94
2022/03/31 03:06:28;;;;;;;21.23;14.85;;;;;;;9.98;78.01;98061.38;4903448;29;20397;-94
2022/03/31 03:08:54;;;;;;;20.60;15.50;;;;;;;9.94;78.89;98057.41;4903409;29;20167;-93
2022/03/31 03:11:20;;;;;;;17.85;14.23;;;;;;;9.96;79.15;98055.38;4897252;29;20390;-94
2022/03/31 03:13:46;;;;;;;19.80;14.88;;;;;;;9.89;78.99;98051.75;4896462;29;20024;-93
2022/03/31 03:16:11;;;;;;;17.35;14.88;;;;;;;9.90;79.38;98048.06;4898637;29;20110;-93
2022/03/31 03:18:38;;;;;;;22.00;14.63;;;;;;;9.83;79.46;98045.28;4892580;29;20120;-93
2022/03/31 03:21:04;;;;;;;20.98;15.40;;;;;;;9.87;79.77;98046.59;4896428;29;20030;-93
2022/03/31 03:23:33;;;;;;;19.30;15.55;;;;;;;9.86;79.50;98046.78;4894484;29;20524;-93
2022/03/31 03:26:01;;;;;;;19.90;15.25;;;;;;;9.96;79.81;98045.53;4896848;29;20031;-93
2022/03/31 03:28:26;;;;;;;17.98;14.80;;;;;;;9.84;79.42;98041.63;4898134;29;20410;-94
2022/03/31 03:30:52;;;;;;;19.48;15.32;;;;;;;9.80;79.90;98034.97;4892071;29;20031;-93
2022/03/31 03:33:17;;;;;;;19.80;15.20;;;;;;;9.85;79.29;98037.09;4898631;29;20386;-94
2022/03/31 03:35:43;;;;;;;19.13;15.68;;;;;;;9.85;79.39;98037.94;4901493;29;20165;-94
2022/03/31 03:38:08;;;;;;;18.83;15.52;;;;;;;9.93;79.07;98029.88;4895741;29;20051;-93
2022/03/31 03:40:34;;;;;;;19.25;15.60;;;;;;;9.95;79.03;98022.53;4911245;29;20058;-93
2022/03/31 03:42:59;;;;;;;18.48;15.85;;;;;;;9.94;79.54;98020.88;4903445;29;20035;-93
2022/03/31 03:45:25;;;;;;;19.25;15.15;;;;;;;9.94;79.91;98028.88;4906152;29;20036;-93
2022/03/31 03:47:51;;;;;;;19.60;15.90;;;;;;;9.90;79.82;98016.03;4911968;29;20032;-93
2022/03/31 03:50:17;;;;;;;18.98;15.90;;;;;;;9.87;80.03;98019.06;4905490;29;20074;-93
2022/03/31 03:52:42;;;;;;;20.15;16.08;;;;;;;9.80;79.89;98016.28;4907335;29;20023;-93
2022/03/31 03:55:10;;;;;;;18.98;15.32;;;;;;;9.73;79.72;98016.19;4906635;29;20493;-94
2022/03/31 03:57:35;;;;;;;22.35;16.52;;;;;;;9.75;80.24;98022.19;4907617;29;20058;-93
2022/03/31 04:00:01;;;;;;;19.85;15.13;;;;;;;9.72;79.92;98021.72;4907834;29;20482;-93
2022/03/31 04:02:26;;;;;;;19.67;16.00;;;;;;;9.76;79.78;98018.50;4909495;29;20036;-94
2022/03/31 04:04:52;;;;;;;20.15;16.25;;;;;;;9.77;79.88;98017.50;4910739;29;20095;-93
2022/03/31 04:07:18;;;;;;;19.33;15.65;;;;;;;9.81;79.76;98015.28;4914996;29;20312;-93
2022/03/31 04:09:43;;;;;;;19.83;15.75;;;;;;;9.85;79.85;98018.41;4910265;29;20484;-93
2022/03/31 04:12:09;;;;;;;21.17;16.38;;;;;;;9.76;80.34;98021.16;4905995;29;20028;-93
2022/03/31 04:14:35;;;;;;;23.10;15.85;;;;;;;9.73;80.47;98016.19;4907539;29;20114;-94
2022/03/31 04:17:00;;;;;;;21.77;16.65;;;;;;;9.76;80.37;98015.00;4910631;29;20032;-94
2022/03/31 04:19:26;;;;;;;22.38;17.17;;;;;;;9.78;80.46;98007.66;4906563;29;20023;-94
2022/03/31 04:21:51;;;;;;;20.70;16.35;;;;;;;9.73;80.82;98005.53;4911705;29;20122;-93
2022/03/31 04:24:17;;;;;;;19.50;15.45;;;;;;;9.77;80.78;98012.16;4909748;29;20027;-93
2022/03/31 04:26:42;;;;;;;23.55;17.17;;;;;;;9.89;80.32;98007.19;4903954;29;20055;-94
2022/03/31 04:29:09;;;;;;;20.35;16.85;;;;;;;9.97;80.15;98007.16;4909052;29;20528;-93
2022/03/31 04:31:52;;;;;;;18.42;16.15;;;;;;;9.97;79.79;97996.47;4907825;29;20032;-94
2022/03/31 04:34:19;;;;;;;20.70;16.58;;;;;;;9.93;79.86;97997.84;4907758;29;20023;-93
2022/03/31 04:36:45;;;;;;;22.88;16.67;;;;;;;9.89;79.78;97998.34;4913677;29;20024;-93
2022/03/31 04:39:12;;;;;;;22.08;16.65;;;;;;;9.86;80.29;97996.88;4906800;29;20055;-93
2022/03/31 04:41:37;;;;;;;22.08;17.23;;;;;;;9.79;80.50;97996.78;4911482;29;20042;-93
2022/03/31 04:44:03;;;;;;;20.40;16.42;;;;;;;9.79;80.71;97996.78;4910793;29;20043;-93
2022/03/31 04:46:28;;;;;;;21.33;17.52;;;;;;;9.73;80.60;98000.19;4907278;29;20038;-93
2022/03/31 04:48:54;;;;;;;25.67;18.77;;;;;;;9.75;80.68;98006.16;4907890;29;20034;-94
2022/03/31 04:51:20;;;;;;;21.58;16.73;;;;;;;9.69;80.73;98003.41;4915617;29;20032;-93
2022/03/31 04:53:46;;;;;;;20.08;17.65;;;;;;;9.68;81.06;98004.41;4908030;29;20553;-93
2022/03/31 04:56:11;;;;;;;25.67;18.02;;;;;;;9.49;80.42;98004.91;4909574;29;20043;-94
2022/03/31 04:58:37;;;;;;;21.63;17.52;;;;;;;9.40;80.51;98001.44;4914703;29;20091;-93
2022/03/31 05:01:04;;;;;;;23.20;17.23;;;;;;;9.34;81.15;97991.50;4911381;29;20023;-93
2022/03/31 05:03:29;;;;;;;22.95;17.40;;;;;;;9.35;81.38;97994.00;4905646;29;20045;-92
2022/03/31 05:05:54;;;;;;;22.70;18.25;;;;;;;9.37;81.53;98004.47;4910389;29;20110;-93
2022/03/31 05:08:20;;;;;;;25.13;17.73;;;;;;;9.36;81.57;98005.47;4924717;29;20035;-93
2022/03/31 05:10:45;;;;;;;22.70;18.65;;;;;;;9.31;81.98;98005.19;4908489;29;20034;-93
2022/03/31 05:13:11;;;;;;;23.45;17.52;;;;;;;9.34;81.88;97999.50;4908634;29;20032;-93
2022/03/31 05:15:37;;;;;;;24.52;17.30;;;;;;;9.29;81.76;98007.22;4910001;29;20391;-93
2022/03/31 05:18:08;;;;;;;21.08;17.35;;;;;;;9.19;81.44;98011.94;4908327;29;20032;-92
2022/03/31 05:20:34;;;;;;;21.42;17.48;;;;;;;9.18;81.85;98008.47;4907462;29;20067;-93
2022/03/31 05:22:59;;;;;;;20.45;17.27;;;;;;;9.19;81.74;98011.94;4911445;29;20450;-94
2022/03/31 05:25:25;;;;;;;24.17;18.05;;;;;;;9.12;81.13;98001.16;4907411;29;20672;-94
2022/03/31 05:27:51;;;;;;;21.80;18.08;;;;;;;9.13;81.91;98006.31;4908588;29;20082;-93
2022/03/31 05:30:19;;;;;;;23.10;18.55;;;;;;;9.16;81.80;98002.47;4909226;29;20032;-93
2022/03/31 05:32:44;;;;;;;21.52;18.15;;;;;;;9.18;82.15;97995.13;4907107;29;20020;-93
2022/03/31 05:35:11;;;;;;;23.42;19.08;;;;;;;9.23;81.63;97998.09;4908004;29;20508;-93
2022/03/31 05:37:37;;;;;;;23.23;18.40;;;;;;;9.30;82.16;98003.53;4913534;29;20062;-93
2022/03/31 05:40:07;;;;;;;25.08;18.75;;;;;;;9.05;81.44;98006.38;4929515;28;20055;-94
2022/03/31 05:42:33;;;;;;;22.20;18.33;;;;;;;8.95;81.68;98005.75;4923735;29;20114;-94
2022/03/31 05:44:59;;;;;;;24.00;18.75;;;;;;;9.02;82.12;98009.41;4906645;29;20042;-93
2022/03/31 05:47:25;;;;;;;23.13;17.92;;;;;;;9.06;82.31;98009.88;4906034;29;20542;-95
2022/03/31 05:49:51;;;;;;;21.80;18.35;;;;;;;9.15;81.49;98003.47;4912862;29;20078;-94
2022/03/31 05:52:16;;;;;;;23.42;17.92;;;;;;;9.15;81.06;98009.63;4910936;29;20050;-94
2022/03/31 05:54:42;;;;;;;20.58;17.63;;;;;;;9.14;80.77;98009.81;4912487;29;20028;-93
2022/03/31 05:57:08;;;;;;;20.95;16.65;;;;;;;9.02;80.81;98003.25;4911592;29;20046;-94
2022/03/31 05:59:35;;;;;;;22.65;17.05;;;;;;;8.86;80.54;97998.81;4910699;29;20060;-94
2022/03/31 06:02:03;;;;;;;19.42;15.63;;;;;;;8.90;80.77;98007.28;4912044;29;20023;-94
2022/03/31 06:04:29;;;;;;;21.88;17.35;;;;;;;8.88;80.58;98004.78;4909145;29;20043;-93
2022/03/31 06:06:54;;;;;;;21.42;16.05;;;;;;;8.92;80.92;98000.78;4905311;29;20087;-94
2022/03/31 06:09:20;;;;;;;20.35;15.75;;;;;;;8.82;80.77;98009.00;4905362;29;20028;-94
2022/03/31 06:11:46;;;;;;;21.38;15.90;;;;;;;8.73;81.08;98012.72;4905967;29;20047;-94
2022/03/31 06:14:11;;;;;;;18.55;15.02;;;;;;;8.72;81.04;98011.06;4906290;29;20028;-95
2022/03/31 06:16:37;;;;;;;19.38;14.95;;;;;;;8.76;81.59;98006.19;4905420;29;20458;-93
2022/03/31 06:19:03;;;;;;;16.02;14.10;;;;;;;8.67;80.70;98012.59;4904989;29;20024;-94
2022/03/31 06:21:28;;;;;;;19.45;14.00;;;;;;;8.64;80.49;98007.59;4918010;29;20081;-93
2022/03/31 06:23:54;;;;;;;17.65;13.65;;;;;;;8.59;80.48;98020.63;4908057;29;20023;-93
2022/03/31 06:26:19;;;;;;;19.70;14.88;;;;;;;8.59;80.84;98017.94;4905127;29;20031;-94
2022/03/31 06:28:45;;;;;;;17.23;13.93;;;;;;;8.57;80.55;98011.97;4905223;29;20028;-93
2022/03/31 06:31:10;;;;;;;17.10;13.45;;;;;;;8.76;80.55;98022.19;4916700;29;20314;-95
2022/03/31 06:33:37;;;;;;;19.73;14.20;;;;;;;8.81;80.58;98011.84;4917305;29;20087;-95
2022/03/31 06:36:03;;;;;;;17.13;13.65;;;;;;;8.89;80.26;98025.13;4919430;29;20031;-94
2022/03/31 06:38:28;;;;;;;18.02;13.80;;;;;;;8.86;80.14;98020.13;4916459;29;20110;-94
2022/03/31 06:41:06;;;;;;;19.02;14.25;;;;;;;8.87;79.93;98023.63;4917077;29;20024;-94
2022/03/31 06:43:33;;;;;;;16.92;13.95;;;;;;;8.91;80.14;98025.78;4918011;29;20030;-95
2022/03/31 06:45:58;;;;;;;18.10;14.00;;;;;;;8.95;80.70;98027.06;4917442;29;20497;-95
2022/03/31 06:48:25;;;;;;;18.58;13.80;;;;;;;8.98;80.21;98034.72;4918357;29;20042;-94
2022/03/31 06:50:51;;;;;;;16.95;14.13;;;;;;;9.07;80.22;98031.03;4917555;29;20019;-94
2022/03/31 06:53:17;;;;;;;19.08;14.13;;;;;;;9.00;80.07;98030.06;4917279;29;20031;-94
2022/03/31 06:55:42;;;;;;;16.80;14.07;;;;;;;8.92;80.03;98031.94;4920478;29;20027;-95
2022/03/31 06:58:10;;;;;;;20.05;14.98;;;;;;;8.87;80.25;98024.47;4919247;29;20028;-94
2022/03/31 07:00:36;;;;;;;21.50;15.37;;;;;;;8.92;80.12;98026.59;4918798;29;20024;-95
2022/03/31 07:03:01;;;;;;;20.48;14.95;;;;;;;9.02;80.71;98029.91;4919462;29;20087;-94
2022/03/31 07:05:27;;;;;;;18.80;14.65;;;;;;;9.01;80.44;98025.56;4916157;29;20040;-94
2022/03/31 07:07:53;;;;;;;19.35;14.43;;;;;;;9.03;80.62;98027.06;4913062;29;20023;-95
2022/03/31 07:10:18;;;;;;;18.33;14.75;;;;;;;9.07;80.45;98032.88;4913189;29;20493;-95
2022/03/31 07:12:44;;;;;;;21.35;15.35;;;;;;;9.11;79.76;98024.34;4913343;29;20027;-94
2022/03/31 07:15:10;;;;;;;17.67;14.70;;;;;;;9.07;80.20;98019.53;4912302;29;20030;-94
2022/03/31 07:17:37;;;;;;;18.63;15.55;;;;;;;8.96;80.18;98025.25;4912990;29;20019;-94
2022/03/31 07:20:06;;;;;;;20.73;15.13;;;;;;;8.89;80.89;98025.13;4912626;29;20398;-95
2022/03/31 07:22:32;;;;;;;19.85;15.60;;;;;;;8.97;81.12;98027.72;4913369;29;20155;-95
2022/03/31 07:24:58;;;;;;;22.48;16.92;;;;;;;8.86;80.70;98025.47;4914155;29;20027;-94
2022/03/31 07:27:23;;;;;;;22.55;17.35;;;;;;;8.87;79.99;98024.47;4912928;29;20034;-95
2022/03/31 07:29:49;;;;;;;23.77;17.48;;;;;;;8.96;81.39;98019.91;4912574;29;20035;-94
2022/03/31 07:32:14;;;;;;;23.33;17.17;;;;;;;9.01;80.69;98018.41;4912553;29;20070;-95
2022/03/31 07:34:40;;;;;;;21.92;17.75;;;;;;;8.93;81.03;98022.94;4913458;29;20027;-94
2022/03/31 07:37:08;;;;;;;23.05;17.42;;;;;;;8.92;81.17;98023.94;4914385;29;20075;-94
2022/03/31 07:39:35;;;;;;;20.90;16.20;;;;;;;8.84;80.91;98022.16;4908182;29;20032;-94
2022/03/31 07:42:04;;;;;;;20.20;16.92;;;;;;;8.95;81.45;98023.56;4903481;29;20036;-94
2022/03/31 07:44:29;;;;;;;21.52;17.30;;;;;;;9.05;81.09;98024.22;4903474;29;20020;-95
2022/03/31 07:46:56;;;;;;;21.50;17.13;;;;;;;8.98;80.75;98016.06;4903227;29;20051;-96
2022/03/31 07:49:21;;;;;;;23.70;17.42;;;;;;;8.88;80.32;98015.47;4902044;29;20056;-94
2022/03/31 07:51:47;;;;;;;23.42;17.92;;;;;;;8.88;81.04;98009.28;4900740;29;20055;-95
2022/03/31 07:54:12;;;;;;;23.45;17.95;;;;;;;8.72;80.45;98013.72;4900416;29;20056;-94
2022/03/31 07:56:37;;;;;;;24.17;17.23;;;;;;;8.70;80.94;98013.06;4901550;29;20043;-94
2022/03/31 07:59:06;;;;;;;21.52;16.55;;;;;;;8.71;81.00;98022.72;4901019;29;20063;-95
2022/03/31 08:01:33;;;;;;;;;;;;;;;8.73;80.82;98019.88;4900393;29;20020;-95
2022/03/31 08:03:59;;;;;;;23.83;16.95;;;;;;;8.43;80.17;98022.31;4899469;29;19922;-96
2022/03/31 08:06:24;;;;;;;24.50;16.92;;;;;;;8.52;80.67;98020.47;4915421;29;20036;-95
2022/03/31 08:08:50;;;;;;;23.13;17.35;;;;;;;8.51;80.66;98016.13;4899267;29;20032;-94
2022/03/31 08:11:15;;;;;;;25.70;18.08;;;;;;;8.41;80.39;98016.34;4901317;29;20028;-95
2022/03/31 08:13:41;;;;;;;28.45;19.13;;;;;;;8.48;81.23;98021.78;4906201;29;20035;-94
2022/03/31 08:16:09;;;;;;;25.35;19.80;;;;;;;8.52;80.99;98012.50;4898343;29;20028;-95
2022/03/31 08:18:36;;;;;;;27.38;20.25;;;;;;;8.45;80.83;98014.16;4896694;29;20020;-94
2022/03/31 08:21:02;;;;;;;30.83;20.27;;;;;;;8.40;80.56;98019.16;4896898;29;20032;-94
2022/03/31 08:23:27;;;;;;;30.20;21.08;;;;;;;8.47;81.81;98020.97;4896138;29;20048;-94
2022/03/31 08:25:54;;;;;;;28.77;21.27;;;;;;;8.49;81.15;98026.13;4898054;29;20088;-95
2022/03/31 08:28:20;;;;;;;31.98;22.45;;;;;;;8.46;80.49;98021.97;4899298;29;20032;-94
2022/03/31 08:30:49;;;;;;;30.30;22.30;;;;;;;8.52;80.99;98021.31;4898843;29;20051;-95
2022/03/31 08:33:15;;;;;;;29.67;22.15;;;;;;;8.56;80.82;98023.63;4899391;29;20028;-95
2022/03/31 08:35:41;;;;;;;33.08;23.35;;;;;;;8.44;80.14;98026.63;4898695;29;20028;-94
2022/03/31 08:38:07;;;;;;;33.55;23.60;;;;;;;8.41;80.51;98028.81;4895792;29;20027;-95
2022/03/31 08:40:32;;;;;;;33.03;23.90;;;;;;;8.40;80.47;98032.47;4894508;29;20043;-94
2022/03/31 08:43:00;;;;;;;35.03;25.10;;;;;;;8.47;80.29;98023.63;4898300;29;20107;-94
2022/03/31 08:45:25;;;;;;;35.70;23.17;;;;;;;8.34;79.74;98030.50;4898741;29;20071;-94
2022/03/31 08:47:54;;;;;;;32.63;23.15;;;;;;;8.28;80.14;98026.66;4898515;29;20111;-94
2022/03/31 08:50:21;;;;;;;32.22;23.17;;;;;;;8.34;80.38;98030.50;4902772;29;20394;-94
2022/03/31 08:52:46;;;;;;;33.25;22.65;;;;;;;8.31;80.55;98033.47;4896429;29;20024;-94
2022/03/31 08:55:12;;;;;;;33.40;23.23;;;;;;;8.29;80.92;98038.16;4896202;29;20024;-94
2022/03/31 08:57:43;;;;;;;30.23;21.88;;;;;;;8.39;80.53;98034.31;4895636;29;20043;-94
2022/03/31 09:00:10;;;;;;;32.25;22.30;;;;;;;8.30;80.36;98042.47;4893876;29;20032;-94
2022/03/31 09:02:37;;;;;;;29.38;20.38;;;;;;;8.33;80.85;98040.34;4912558;29;20031;-94
2022/03/31 09:05:09;;;;;;;31.77;20.95;;;;;;;8.25;80.81;98044.81;4915580;29;20462;-94
2022/03/31 09:07:35;;;;;;;32.55;22.08;;;;;;;8.32;80.78;98041.31;4924568;29;20028;-94
2022/03/31 09:10:00;;;;;;;28.63;20.38;;;;;;;8.36;80.83;98047.16;4913561;29;20501;-94
2022/03/31 09:12:39;;;;;;;28.77;20.15;;;;;;;8.43;80.75;98053.44;4915194;29;20110;-93
2022/03/31 09:15:11;;;;;;;29.45;20.42;;;;;;;8.42;80.42;98049.13;4913899;29;20051;-94
2022/03/31 09:17:36;;;;;;;31.00;21.40;;;;;;;8.37;80.28;98043.47;4914174;29;20028;-93
2022/03/31 09:20:02;;;;;;;30.60;20.75;;;;;;;8.37;80.19;98054.13;4912885;29;20486;-94
2022/03/31 09:22:28;;;;;;;34.58;21.70;;;;;;;8.17;80.01;98043.84;4914304;29;20457;-94
2022/03/31 09:25:01;;;;;;;30.75;21.30;;;;;;;8.11;80.71;98041.88;4916826;29;20020;-94
2022/03/31 09:27:26;;;;;;;28.60;20.40;;;;;;;8.14;80.81;98051.34;4917948;29;20051;-94
2022/03/31 09:29:54;;;;;;;29.80;20.88;;;;;;;8.02;80.42;98048.19;4917063;29;20020;-94
2022/03/31 09:32:20;;;;;;;32.10;20.63;;;;;;;8.13;80.09;98052.34;4914910;29;20032;-95
2022/03/31 09:34:50;;;;;;;30.23;19.63;;;;;;;8.20;79.92;98051.50;4912034;29;20024;-94
2022/03/31 09:37:16;;;;;;;28.65;18.85;;;;;;;8.28;79.56;98042.66;4912471;29;20024;-94
2022/03/31 09:39:42;;;;;;;27.50;18.70;;;;;;;8.08;79.13;98046.69;4912611;29;20038;-94
2022/03/31 09:42:17;;;;;;;26.23;18.58;;;;;;;8.01;79.55;98057.16;4912366;29;20031;-94
2022/03/31 09:44:42;;;;;;;28.70;19.52;;;;;;;7.85;79.21;98051.88;4910905;29;20031;-94
2022/03/31 09:47:09;;;;;;;28.13;18.67;;;;;;;7.97;79.14;98053.19;4910754;29;20042;-94
2022/03/31 09:49:36;;;;;;;28.35;18.45;;;;;;;7.99;79.58;98056.50;4923260;29;20050;-94
2022/03/31 09:52:04;;;;;;;28.67;18.52;;;;;;;7.78;79.05;98050.88;4925652;29;20027;-95
2022/03/31 09:54:32;;;;;;;31.10;18.80;;;;;;;7.74;79.90;98052.22;4925682;29;20059;-95
2022/03/31 09:57:03;;;;;;;29.60;19.05;;;;;;;7.81;79.61;98056.69;4926217;29;20234;-95
2022/03/31 09:59:33;;;;;;;29.83;18.95;;;;;;;7.83;79.38;98049.38;4924160;29;20036;-95
2022/03/31 10:02:00;;;;;;;27.38;18.45;;;;;;;7.83;79.30;98060.00;4925615;29;20032;-95
2022/03/31 10:04:26;;;;;;;26.35;18.42;;;;;;;7.86;79.67;98061.50;4926218;29;20008;-94
2022/03/31 10:06:51;;;;;;;27.65;17.45;;;;;;;7.76;79.04;98060.84;4926384;29;20023;-95
2022/03/31 10:09:17;;;;;;;28.67;17.48;;;;;;;7.82;79.46;98062.84;4924513;29;20050;-94
2022/03/31 10:11:45;;;;;;;26.48;18.20;;;;;;;7.76;79.43;98063.50;4923244;29;20030;-94
2022/03/31 10:14:22;;;;;;;29.25;17.80;;;;;;;7.81;79.14;98055.84;4924578;29;20022;-95
2022/03/31 10:16:57;;;;;;;27.75;17.40;;;;;;;7.82;79.22;98066.34;4925112;29;20031;-94
2022/03/31 10:19:39;;;;;;;25.77;15.35;;;;;;;7.61;79.06;98063.34;4924514;29;20023;-95
2022/03/31 10:22:07;;;;;;;23.70;15.38;;;;;;;7.69;79.00;98067.84;4924985;29;20055;-94
2022/03/31 10:24:42;;;;;;;22.60;14.65;;;;;;;7.53;78.61;98077.44;4912125;29;20023;-94
2022/03/31 10:27:39;;;;;;;22.73;14.93;;;;;;;7.58;79.37;98074.31;4891208;29;20063;-93
2022/03/31 10:30:15;;;;;;;21.23;13.57;;;;;;;7.41;79.19;98077.94;4884017;29;20032;-94
2022/03/31 10:33:07;;;;;;;20.63;13.30;;;;;;;7.48;78.54;98079.78;4909485;29;20028;-93
2022/03/31 10:35:33;;;;;;;23.30;14.13;;;;;;;7.57;79.39;98084.13;4889484;29;20039;-94
2022/03/31 10:38:10;;;;;;;19.38;13.02;;;;;;;7.50;78.07;98071.63;4916328;29;20036;-93
2022/03/31 10:40:38;;;;;;;18.83;11.63;;;;;;;7.57;79.09;98070.00;4897068;29;20048;-94
2022/03/31 10:43:05;;;;;;;20.88;11.15;;;;;;;7.38;78.61;98083.59;4886339;29;20482;-94
2022/03/31 10:45:35;;;;;;;17.23;10.98;;;;;;;7.46;78.83;98078.28;4887003;29;20395;-94
2022/03/31 10:48:12;;;;;;;19.38;11.85;;;;;;;7.44;78.64;98081.09;4888273;29;20031;-93
2022/03/31 10:50:38;;;;;;;20.77;12.07;;;;;;;7.42;78.79;98080.44;4886338;29;20044;-94
2022/03/31 10:53:03;;;;;;;15.75;10.27;;;;;;;7.54;78.73;98070.31;4886422;29;20027;-93
2022/03/31 10:55:41;;;;;;;15.75;9.50;;;;;;;7.61;78.32;98060.69;4888382;29;20023;-93
2022/03/31 10:58:18;;;;;;;18.33;10.38;;;;;;;7.17;78.41;98068.94;4886435;29;20027;-94
2022/03/31 11:00:43;;;;;;;15.07;9.75;;;;;;;7.17;79.00;98073.44;4896152;29;20028;-94
2022/03/31 11:03:09;;;;;;;15.93;9.75;;;;;;;7.28;79.24;98067.78;4885645;29;20031;-93
2022/03/31 11:05:38;;;;;;;14.60;9.20;;;;;;;7.26;79.13;98067.97;4892850;29;20031;-94
2022/03/31 11:08:05;;;;;;;13.98;8.70;;;;;;;7.04;78.43;98070.38;4888908;29;20043;-94
2022/03/31 11:10:41;;;;;;;13.90;9.07;;;;;;;6.93;79.52;98072.34;4888660;29;20067;-94
2022/03/31 11:13:07;;;;;;;13.30;8.02;;;;;;;7.03;79.81;98074.88;4892169;29;20068;-94
2022/03/31 11:15:33;;;;;;;9.18;6.53;;;;;;;7.11;79.22;98066.94;4904284;29;20031;-94
2022/03/31 11:18:01;;;;;;;9.93;6.63;;;;;;;7.30;78.87;98064.97;4900914;29;20027;-94
2022/03/31 11:20:27;;;;;;;10.30;6.93;;;;;;;7.25;78.45;98068.97;4900780;29;20032;-94
2022/03/31 11:23:00;;;;;;;9.68;6.40;;;;;;;7.09;78.42;98066.25;4889435;29;20036;-94
2022/03/31 11:25:26;;;;;;;8.35;5.93;;;;;;;7.05;79.10;98070.22;4893680;29;20024;-94